sensor_id;sensor_type;location;lat;lon;timestamp;P1;durP1;ratioP1;P2;durP2;ratioP2
47309;SDS011;33046;52.270;6.832;2023-03-15T00:01:57;4.65;;;1.10;;
47309;SDS011;33046;52.270;6.832;2023-03-15T00:04:06;6.18;;;2.25;;
47309;SDS011;33046;52.270;6.832;2023-03-15T00:06:13;5.32;;;1.65;;
47309;SDS011;33046;52.270;6.832;2023-03-15T00:08:20;5.00;;;1.80;;
47309;SDS011;33046;52.270;6.832;2023-03-15T00:10:27;7.68;;;1.67;;
47309;SDS011;33046;52.270;6.832;2023-03-15T00:12:34;5.85;;;1.73;;
47309;SDS011;33046;52.270;6.832;2023-03-15T00:14:40;5.95;;;2.05;;
47309;SDS011;33046;52.270;6.832;2023-03-15T00:16:47;4.80;;;1.60;;
47309;SDS011;33046;52.270;6.832;2023-03-15T00:18:54;5.20;;;1.42;;
47309;SDS011;33046;52.270;6.832;2023-03-15T00:21:02;9.75;;;1.85;;
47309;SDS011;33046;52.270;6.832;2023-03-15T00:23:10;4.00;;;1.50;;
47309;SDS011;33046;52.270;6.832;2023-03-15T00:25:16;4.05;;;1.30;;
47309;SDS011;33046;52.270;6.832;2023-03-15T00:27:23;5.22;;;2.53;;
47309;SDS011;33046;52.270;6.832;2023-03-15T00:29:30;7.13;;;2.35;;
47309;SDS011;33046;52.270;6.832;2023-03-15T00:31:37;3.35;;;1.20;;
47309;SDS011;33046;52.270;6.832;2023-03-15T00:33:44;6.15;;;1.80;;
47309;SDS011;33046;52.270;6.832;2023-03-15T00:35:53;3.72;;;1.38;;
47309;SDS011;33046;52.270;6.832;2023-03-15T00:38:01;4.50;;;1.17;;
47309;SDS011;33046;52.270;6.832;2023-03-15T00:40:08;4.50;;;1.02;;
47309;SDS011;33046;52.270;6.832;2023-03-15T00:42:16;2.35;;;1.23;;
47309;SDS011;33046;52.270;6.832;2023-03-15T00:44:23;3.17;;;0.80;;
47309;SDS011;33046;52.270;6.832;2023-03-15T00:46:30;3.63;;;1.17;;
47309;SDS011;33046;52.270;6.832;2023-03-15T00:48:37;4.03;;;1.80;;
47309;SDS011;33046;52.270;6.832;2023-03-15T00:50:44;2.22;;;1.08;;
47309;SDS011;33046;52.270;6.832;2023-03-15T00:52:50;4.95;;;2.10;;
47309;SDS011;33046;52.270;6.832;2023-03-15T00:54:59;2.35;;;1.20;;
47309;SDS011;33046;52.270;6.832;2023-03-15T00:57:05;3.72;;;1.13;;
47309;SDS011;33046;52.270;6.832;2023-03-15T00:59:13;2.67;;;1.15;;
47309;SDS011;33046;52.270;6.832;2023-03-15T01:01:21;2.85;;;1.10;;
47309;SDS011;33046;52.270;6.832;2023-03-15T01:03:30;2.50;;;1.35;;
47309;SDS011;33046;52.270;6.832;2023-03-15T01:05:37;2.95;;;1.20;;
47309;SDS011;33046;52.270;6.832;2023-03-15T01:07:44;3.20;;;1.20;;
47309;SDS011;33046;52.270;6.832;2023-03-15T01:09:51;4.25;;;1.75;;
47309;SDS011;33046;52.270;6.832;2023-03-15T01:11:59;1.60;;;1.08;;
47309;SDS011;33046;52.270;6.832;2023-03-15T01:14:09;1.95;;;1.10;;
47309;SDS011;33046;52.270;6.832;2023-03-15T01:16:16;2.53;;;1.30;;
47309;SDS011;33046;52.270;6.832;2023-03-15T01:18:23;5.70;;;1.38;;
47309;SDS011;33046;52.270;6.832;2023-03-15T01:20:30;2.10;;;1.20;;
47309;SDS011;33046;52.270;6.832;2023-03-15T01:22:37;1.98;;;1.15;;
47309;SDS011;33046;52.270;6.832;2023-03-15T01:24:45;1.58;;;1.17;;
47309;SDS011;33046;52.270;6.832;2023-03-15T01:26:52;2.97;;;1.20;;
47309;SDS011;33046;52.270;6.832;2023-03-15T01:29:00;1.83;;;1.17;;
47309;SDS011;33046;52.270;6.832;2023-03-15T01:31:08;2.80;;;1.42;;
47309;SDS011;33046;52.270;6.832;2023-03-15T01:33:20;2.13;;;1.58;;
47309;SDS011;33046;52.270;6.832;2023-03-15T01:35:28;3.28;;;1.60;;
47309;SDS011;33046;52.270;6.832;2023-03-15T01:37:35;1.73;;;1.25;;
47309;SDS011;33046;52.270;6.832;2023-03-15T01:39:42;4.22;;;1.73;;
47309;SDS011;33046;52.270;6.832;2023-03-15T01:41:49;2.08;;;1.35;;
47309;SDS011;33046;52.270;6.832;2023-03-15T01:43:56;2.65;;;1.40;;
47309;SDS011;33046;52.270;6.832;2023-03-15T01:48:36;2.72;;;1.63;;
47309;SDS011;33046;52.270;6.832;2023-03-15T01:50:46;3.10;;;1.88;;
47309;SDS011;33046;52.270;6.832;2023-03-15T01:52:53;1.73;;;1.33;;
47309;SDS011;33046;52.270;6.832;2023-03-15T01:55:02;2.72;;;1.63;;
47309;SDS011;33046;52.270;6.832;2023-03-15T01:57:14;2.63;;;1.90;;
47309;SDS011;33046;52.270;6.832;2023-03-15T01:59:25;2.22;;;1.50;;
47309;SDS011;33046;52.270;6.832;2023-03-15T02:01:36;2.83;;;1.55;;
47309;SDS011;33046;52.270;6.832;2023-03-15T02:03:46;2.95;;;2.30;;
47309;SDS011;33046;52.270;6.832;2023-03-15T02:05:59;3.40;;;2.22;;
47309;SDS011;33046;52.270;6.832;2023-03-15T02:08:24;2.30;;;1.92;;
47309;SDS011;33046;52.270;6.832;2023-03-15T02:10:34;1.95;;;1.70;;
47309;SDS011;33046;52.270;6.832;2023-03-15T02:12:46;4.15;;;1.73;;
47309;SDS011;33046;52.270;6.832;2023-03-15T02:14:56;1.92;;;1.70;;
47309;SDS011;33046;52.270;6.832;2023-03-15T02:17:09;2.75;;;1.80;;
47309;SDS011;33046;52.270;6.832;2023-03-15T02:19:19;2.75;;;1.77;;
47309;SDS011;33046;52.270;6.832;2023-03-15T02:21:41;5.32;;;2.33;;
47309;SDS011;33046;52.270;6.832;2023-03-15T02:23:58;3.90;;;1.88;;
47309;SDS011;33046;52.270;6.832;2023-03-15T02:26:15;3.38;;;2.17;;
47309;SDS011;33046;52.270;6.832;2023-03-15T02:28:27;2.53;;;2.30;;
47309;SDS011;33046;52.270;6.832;2023-03-15T02:30:35;3.60;;;2.03;;
47309;SDS011;33046;52.270;6.832;2023-03-15T02:32:42;4.80;;;2.40;;
47309;SDS011;33046;52.270;6.832;2023-03-15T02:34:49;4.22;;;2.45;;
47309;SDS011;33046;52.270;6.832;2023-03-15T02:36:56;2.65;;;2.00;;
47309;SDS011;33046;52.270;6.832;2023-03-15T02:39:12;3.17;;;1.77;;
47309;SDS011;33046;52.270;6.832;2023-03-15T02:41:21;3.85;;;2.10;;
47309;SDS011;33046;52.270;6.832;2023-03-15T02:43:33;2.35;;;1.83;;
47309;SDS011;33046;52.270;6.832;2023-03-15T02:45:41;2.75;;;1.88;;
47309;SDS011;33046;52.270;6.832;2023-03-15T02:47:48;2.67;;;1.75;;
47309;SDS011;33046;52.270;6.832;2023-03-15T02:49:55;3.05;;;1.83;;
47309;SDS011;33046;52.270;6.832;2023-03-15T02:52:03;4.70;;;2.47;;
47309;SDS011;33046;52.270;6.832;2023-03-15T02:54:11;4.05;;;2.28;;
47309;SDS011;33046;52.270;6.832;2023-03-15T02:56:18;3.42;;;2.03;;
47309;SDS011;33046;52.270;6.832;2023-03-15T02:58:25;3.00;;;1.90;;
47309;SDS011;33046;52.270;6.832;2023-03-15T03:00:33;5.20;;;2.83;;
47309;SDS011;33046;52.270;6.832;2023-03-15T03:02:41;4.95;;;3.38;;
47309;SDS011;33046;52.270;6.832;2023-03-15T03:04:49;7.25;;;2.13;;
47309;SDS011;33046;52.270;6.832;2023-03-15T03:06:57;3.47;;;2.33;;
47309;SDS011;33046;52.270;6.832;2023-03-15T03:09:11;5.45;;;2.83;;
47309;SDS011;33046;52.270;6.832;2023-03-15T03:11:20;5.72;;;3.42;;
47309;SDS011;33046;52.270;6.832;2023-03-15T03:13:28;4.20;;;2.65;;
47309;SDS011;33046;52.270;6.832;2023-03-15T03:15:36;3.45;;;2.42;;
47309;SDS011;33046;52.270;6.832;2023-03-15T03:17:43;3.03;;;2.55;;
47309;SDS011;33046;52.270;6.832;2023-03-15T03:19:50;4.90;;;3.45;;
47309;SDS011;33046;52.270;6.832;2023-03-15T03:22:00;3.50;;;3.20;;
47309;SDS011;33046;52.270;6.832;2023-03-15T03:24:07;4.65;;;3.35;;
47309;SDS011;33046;52.270;6.832;2023-03-15T03:26:15;9.10;;;4.85;;
47309;SDS011;33046;52.270;6.832;2023-03-15T03:28:26;3.47;;;2.90;;
47309;SDS011;33046;52.270;6.832;2023-03-15T03:30:36;5.45;;;3.80;;
47309;SDS011;33046;52.270;6.832;2023-03-15T03:32:43;4.18;;;3.20;;
47309;SDS011;33046;52.270;6.832;2023-03-15T03:34:51;5.63;;;3.00;;
47309;SDS011;33046;52.270;6.832;2023-03-15T03:37:00;3.47;;;3.10;;
47309;SDS011;33046;52.270;6.832;2023-03-15T03:39:26;5.25;;;3.20;;
47309;SDS011;33046;52.270;6.832;2023-03-15T03:41:33;6.72;;;3.30;;
47309;SDS011;33046;52.270;6.832;2023-03-15T03:43:40;3.95;;;3.50;;
47309;SDS011;33046;52.270;6.832;2023-03-15T03:45:49;7.93;;;3.53;;
47309;SDS011;33046;52.270;6.832;2023-03-15T03:47:56;4.85;;;3.42;;
47309;SDS011;33046;52.270;6.832;2023-03-15T03:50:03;6.53;;;3.25;;
47309;SDS011;33046;52.270;6.832;2023-03-15T03:52:11;4.18;;;3.50;;
47309;SDS011;33046;52.270;6.832;2023-03-15T03:54:18;5.68;;;3.20;;
47309;SDS011;33046;52.270;6.832;2023-03-15T03:56:25;5.85;;;3.17;;
47309;SDS011;33046;52.270;6.832;2023-03-15T03:58:32;5.28;;;3.17;;
47309;SDS011;33046;52.270;6.832;2023-03-15T04:00:49;4.63;;;3.55;;
47309;SDS011;33046;52.270;6.832;2023-03-15T04:02:57;3.47;;;3.13;;
47309;SDS011;33046;52.270;6.832;2023-03-15T04:05:04;4.50;;;3.35;;
47309;SDS011;33046;52.270;6.832;2023-03-15T04:07:11;4.53;;;2.83;;
47309;SDS011;33046;52.270;6.832;2023-03-15T04:09:20;5.28;;;3.13;;
47309;SDS011;33046;52.270;6.832;2023-03-15T04:11:27;4.38;;;3.58;;
47309;SDS011;33046;52.270;6.832;2023-03-15T04:13:38;6.75;;;3.20;;
47309;SDS011;33046;52.270;6.832;2023-03-15T04:15:44;5.57;;;3.03;;
47309;SDS011;33046;52.270;6.832;2023-03-15T04:17:53;6.85;;;3.75;;
47309;SDS011;33046;52.270;6.832;2023-03-15T04:20:01;6.50;;;3.55;;
47309;SDS011;33046;52.270;6.832;2023-03-15T04:22:09;5.28;;;4.22;;
47309;SDS011;33046;52.270;6.832;2023-03-15T04:24:32;6.25;;;4.70;;
47309;SDS011;33046;52.270;6.832;2023-03-15T04:26:52;10.82;;;4.65;;
47309;SDS011;33046;52.270;6.832;2023-03-15T04:29:08;6.97;;;4.18;;
47309;SDS011;33046;52.270;6.832;2023-03-15T04:31:36;5.53;;;4.40;;
47309;SDS011;33046;52.270;6.832;2023-03-15T04:34:05;8.35;;;4.05;;
47309;SDS011;33046;52.270;6.832;2023-03-15T04:36:30;7.18;;;3.88;;
47309;SDS011;33046;52.270;6.832;2023-03-15T04:38:53;5.80;;;5.20;;
47309;SDS011;33046;52.270;6.832;2023-03-15T04:41:18;7.97;;;4.45;;
47309;SDS011;33046;52.270;6.832;2023-03-15T04:43:42;7.57;;;4.93;;
47309;SDS011;33046;52.270;6.832;2023-03-15T04:46:13;6.93;;;5.05;;
47309;SDS011;33046;52.270;6.832;2023-03-15T04:48:43;6.53;;;4.30;;
47309;SDS011;33046;52.270;6.832;2023-03-15T04:51:10;8.10;;;6.32;;
47309;SDS011;33046;52.270;6.832;2023-03-15T04:53:23;8.20;;;4.97;;
47309;SDS011;33046;52.270;6.832;2023-03-15T04:55:48;9.80;;;5.82;;
47309;SDS011;33046;52.270;6.832;2023-03-15T04:58:02;9.63;;;5.45;;
47309;SDS011;33046;52.270;6.832;2023-03-15T05:00:35;6.45;;;4.40;;
47309;SDS011;33046;52.270;6.832;2023-03-15T05:02:48;5.40;;;4.83;;
47309;SDS011;33046;52.270;6.832;2023-03-15T05:05:17;6.55;;;4.90;;
47309;SDS011;33046;52.270;6.832;2023-03-15T05:07:54;6.93;;;4.53;;
47309;SDS011;33046;52.270;6.832;2023-03-15T05:10:33;7.03;;;4.32;;
47309;SDS011;33046;52.270;6.832;2023-03-15T05:13:06;9.23;;;5.65;;
47309;SDS011;33046;52.270;6.832;2023-03-15T05:15:48;10.07;;;4.82;;
47309;SDS011;33046;52.270;6.832;2023-03-15T05:18:13;10.23;;;5.35;;
47309;SDS011;33046;52.270;6.832;2023-03-15T05:20:40;8.63;;;5.45;;
47309;SDS011;33046;52.270;6.832;2023-03-15T05:22:59;7.82;;;4.63;;
47309;SDS011;33046;52.270;6.832;2023-03-15T05:25:12;10.48;;;4.88;;
47309;SDS011;33046;52.270;6.832;2023-03-15T05:27:37;9.05;;;4.28;;
47309;SDS011;33046;52.270;6.832;2023-03-15T05:30:15;8.15;;;4.75;;
47309;SDS011;33046;52.270;6.832;2023-03-15T05:32:40;13.68;;;5.28;;
47309;SDS011;33046;52.270;6.832;2023-03-15T05:35:09;6.65;;;3.72;;
47309;SDS011;33046;52.270;6.832;2023-03-15T05:37:38;7.38;;;4.05;;
47309;SDS011;33046;52.270;6.832;2023-03-15T05:40:05;6.50;;;4.25;;
47309;SDS011;33046;52.270;6.832;2023-03-15T05:42:48;5.90;;;4.38;;
47309;SDS011;33046;52.270;6.832;2023-03-15T05:45:08;8.30;;;4.38;;
47309;SDS011;33046;52.270;6.832;2023-03-15T05:47:33;8.07;;;4.20;;
47309;SDS011;33046;52.270;6.832;2023-03-15T05:49:59;8.57;;;4.38;;
47309;SDS011;33046;52.270;6.832;2023-03-15T05:52:32;7.30;;;3.97;;
47309;SDS011;33046;52.270;6.832;2023-03-15T05:55:19;9.27;;;3.78;;
47309;SDS011;33046;52.270;6.832;2023-03-15T05:57:37;9.82;;;5.00;;
47309;SDS011;33046;52.270;6.832;2023-03-15T06:00:06;6.55;;;3.92;;
47309;SDS011;33046;52.270;6.832;2023-03-15T06:02:21;4.63;;;3.72;;
47309;SDS011;33046;52.270;6.832;2023-03-15T06:04:43;8.70;;;3.58;;
47309;SDS011;33046;52.270;6.832;2023-03-15T06:06:54;6.28;;;3.72;;
47309;SDS011;33046;52.270;6.832;2023-03-15T06:09:02;8.95;;;4.82;;
47309;SDS011;33046;52.270;6.832;2023-03-15T06:11:10;7.05;;;4.57;;
47309;SDS011;33046;52.270;6.832;2023-03-15T06:13:17;6.22;;;4.25;;
47309;SDS011;33046;52.270;6.832;2023-03-15T06:15:24;13.77;;;4.93;;
47309;SDS011;33046;52.270;6.832;2023-03-15T06:17:33;6.05;;;4.45;;
47309;SDS011;33046;52.270;6.832;2023-03-15T06:19:39;8.23;;;5.15;;
47309;SDS011;33046;52.270;6.832;2023-03-15T06:21:48;6.28;;;4.45;;
47309;SDS011;33046;52.270;6.832;2023-03-15T06:24:04;7.47;;;4.40;;
47309;SDS011;33046;52.270;6.832;2023-03-15T06:26:14;9.55;;;3.78;;
47309;SDS011;33046;52.270;6.832;2023-03-15T06:28:21;7.40;;;4.45;;
47309;SDS011;33046;52.270;6.832;2023-03-15T06:30:33;5.85;;;4.10;;
47309;SDS011;33046;52.270;6.832;2023-03-15T06:32:40;11.00;;;4.78;;
47309;SDS011;33046;52.270;6.832;2023-03-15T06:34:47;6.05;;;3.63;;
47309;SDS011;33046;52.270;6.832;2023-03-15T06:36:54;6.88;;;4.57;;
47309;SDS011;33046;52.270;6.832;2023-03-15T06:39:01;8.50;;;4.32;;
47309;SDS011;33046;52.270;6.832;2023-03-15T06:41:08;6.88;;;4.22;;
47309;SDS011;33046;52.270;6.832;2023-03-15T06:43:17;7.25;;;4.20;;
47309;SDS011;33046;52.270;6.832;2023-03-15T06:45:24;6.45;;;3.70;;
47309;SDS011;33046;52.270;6.832;2023-03-15T06:47:32;6.43;;;3.63;;
47309;SDS011;33046;52.270;6.832;2023-03-15T06:49:42;6.53;;;4.10;;
47309;SDS011;33046;52.270;6.832;2023-03-15T06:51:50;6.80;;;4.05;;
47309;SDS011;33046;52.270;6.832;2023-03-15T06:53:57;6.20;;;3.25;;
47309;SDS011;33046;52.270;6.832;2023-03-15T06:56:05;6.03;;;3.55;;
47309;SDS011;33046;52.270;6.832;2023-03-15T06:58:12;4.80;;;2.75;;
47309;SDS011;33046;52.270;6.832;2023-03-15T07:00:21;6.68;;;3.22;;
47309;SDS011;33046;52.270;6.832;2023-03-15T07:02:28;7.68;;;3.22;;
47309;SDS011;33046;52.270;6.832;2023-03-15T07:04:35;4.60;;;3.05;;
47309;SDS011;33046;52.270;6.832;2023-03-15T07:06:42;6.47;;;3.28;;
47309;SDS011;33046;52.270;6.832;2023-03-15T07:08:48;5.95;;;3.15;;
47309;SDS011;33046;52.270;6.832;2023-03-15T07:10:55;7.13;;;2.33;;
47309;SDS011;33046;52.270;6.832;2023-03-15T07:13:02;4.63;;;2.70;;
47309;SDS011;33046;52.270;6.832;2023-03-15T07:15:09;5.97;;;2.45;;
47309;SDS011;33046;52.270;6.832;2023-03-15T07:17:18;6.93;;;1.92;;
47309;SDS011;33046;52.270;6.832;2023-03-15T07:19:24;7.35;;;2.75;;
47309;SDS011;33046;52.270;6.832;2023-03-15T07:21:31;4.57;;;2.65;;
47309;SDS011;33046;52.270;6.832;2023-03-15T07:23:38;7.30;;;2.97;;
47309;SDS011;33046;52.270;6.832;2023-03-15T07:25:46;3.45;;;2.10;;
47309;SDS011;33046;52.270;6.832;2023-03-15T07:28:00;4.25;;;1.75;;
47309;SDS011;33046;52.270;6.832;2023-03-15T07:30:07;7.35;;;1.90;;
47309;SDS011;33046;52.270;6.832;2023-03-15T07:32:15;6.75;;;3.00;;
47309;SDS011;33046;52.270;6.832;2023-03-15T07:34:23;8.10;;;2.50;;
47309;SDS011;33046;52.270;6.832;2023-03-15T07:36:31;4.03;;;2.15;;
47309;SDS011;33046;52.270;6.832;2023-03-15T07:38:38;4.53;;;1.70;;
47309;SDS011;33046;52.270;6.832;2023-03-15T07:40:47;6.38;;;1.48;;
47309;SDS011;33046;52.270;6.832;2023-03-15T07:42:53;7.18;;;2.40;;
47309;SDS011;33046;52.270;6.832;2023-03-15T07:45:00;5.25;;;1.60;;
47309;SDS011;33046;52.270;6.832;2023-03-15T07:47:07;9.02;;;2.08;;
47309;SDS011;33046;52.270;6.832;2023-03-15T07:49:14;6.53;;;2.55;;
47309;SDS011;33046;52.270;6.832;2023-03-15T07:51:22;6.72;;;2.22;;
47309;SDS011;33046;52.270;6.832;2023-03-15T07:53:29;5.00;;;2.05;;
47309;SDS011;33046;52.270;6.832;2023-03-15T07:55:36;6.75;;;1.33;;
47309;SDS011;33046;52.270;6.832;2023-03-15T07:57:43;4.07;;;1.60;;
47309;SDS011;33046;52.270;6.832;2023-03-15T07:59:50;4.15;;;1.83;;
47309;SDS011;33046;52.270;6.832;2023-03-15T08:01:56;5.82;;;1.60;;
47309;SDS011;33046;52.270;6.832;2023-03-15T08:04:06;3.55;;;1.50;;
47309;SDS011;33046;52.270;6.832;2023-03-15T08:06:12;4.32;;;1.50;;
47309;SDS011;33046;52.270;6.832;2023-03-15T08:08:21;4.70;;;1.17;;
47309;SDS011;33046;52.270;6.832;2023-03-15T08:10:27;3.20;;;0.93;;
47309;SDS011;33046;52.270;6.832;2023-03-15T08:12:34;5.25;;;1.83;;
47309;SDS011;33046;52.270;6.832;2023-03-15T08:14:41;3.35;;;1.20;;
47309;SDS011;33046;52.270;6.832;2023-03-15T08:16:48;6.95;;;2.80;;
47309;SDS011;33046;52.270;6.832;2023-03-15T08:18:55;4.05;;;0.88;;
47309;SDS011;33046;52.270;6.832;2023-03-15T08:21:02;3.05;;;1.20;;
47309;SDS011;33046;52.270;6.832;2023-03-15T08:23:09;6.20;;;1.20;;
47309;SDS011;33046;52.270;6.832;2023-03-15T08:25:19;1.90;;;0.77;;
47309;SDS011;33046;52.270;6.832;2023-03-15T08:27:27;4.10;;;0.90;;
47309;SDS011;33046;52.270;6.832;2023-03-15T08:29:34;67.03;;;16.23;;
47309;SDS011;33046;52.270;6.832;2023-03-15T08:31:41;4.95;;;2.10;;
47309;SDS011;33046;52.270;6.832;2023-03-15T08:33:48;5.97;;;0.90;;
47309;SDS011;33046;52.270;6.832;2023-03-15T08:35:55;4.43;;;0.80;;
47309;SDS011;33046;52.270;6.832;2023-03-15T08:38:02;3.85;;;1.05;;
47309;SDS011;33046;52.270;6.832;2023-03-15T08:40:09;3.25;;;0.60;;
47309;SDS011;33046;52.270;6.832;2023-03-15T08:42:18;2.78;;;0.60;;
47309;SDS011;33046;52.270;6.832;2023-03-15T08:44:25;3.70;;;1.13;;
47309;SDS011;33046;52.270;6.832;2023-03-15T08:46:32;3.00;;;0.93;;
47309;SDS011;33046;52.270;6.832;2023-03-15T08:48:39;2.30;;;0.70;;
47309;SDS011;33046;52.270;6.832;2023-03-15T08:50:46;6.70;;;1.00;;
47309;SDS011;33046;52.270;6.832;2023-03-15T08:52:52;7.10;;;0.70;;
47309;SDS011;33046;52.270;6.832;2023-03-15T08:54:59;3.13;;;0.77;;
47309;SDS011;33046;52.270;6.832;2023-03-15T08:57:06;3.05;;;0.60;;
47309;SDS011;33046;52.270;6.832;2023-03-15T08:59:14;5.07;;;0.90;;
47309;SDS011;33046;52.270;6.832;2023-03-15T09:01:34;4.30;;;0.80;;
47309;SDS011;33046;52.270;6.832;2023-03-15T09:03:41;2.83;;;1.27;;
47309;SDS011;33046;52.270;6.832;2023-03-15T09:05:47;5.72;;;0.80;;
47309;SDS011;33046;52.270;6.832;2023-03-15T09:07:54;5.05;;;0.52;;
47309;SDS011;33046;52.270;6.832;2023-03-15T09:10:01;5.50;;;0.80;;
47309;SDS011;33046;52.270;6.832;2023-03-15T09:12:10;12.27;;;2.03;;
47309;SDS011;33046;52.270;6.832;2023-03-15T09:14:18;6.25;;;0.60;;
47309;SDS011;33046;52.270;6.832;2023-03-15T09:16:25;7.18;;;1.30;;
47309;SDS011;33046;52.270;6.832;2023-03-15T09:18:32;2.90;;;0.50;;
47309;SDS011;33046;52.270;6.832;2023-03-15T09:20:39;6.30;;;0.80;;
47309;SDS011;33046;52.270;6.832;2023-03-15T09:22:48;4.00;;;1.08;;
47309;SDS011;33046;52.270;6.832;2023-03-15T09:24:56;6.22;;;0.60;;
47309;SDS011;33046;52.270;6.832;2023-03-15T09:27:03;7.30;;;1.05;;
47309;SDS011;33046;52.270;6.832;2023-03-15T09:29:10;5.25;;;0.73;;
47309;SDS011;33046;52.270;6.832;2023-03-15T09:31:18;3.90;;;0.82;;
47309;SDS011;33046;52.270;6.832;2023-03-15T09:33:25;4.30;;;0.60;;
47309;SDS011;33046;52.270;6.832;2023-03-15T09:35:32;3.78;;;0.65;;
47309;SDS011;33046;52.270;6.832;2023-03-15T09:37:39;5.20;;;0.75;;
47309;SDS011;33046;52.270;6.832;2023-03-15T09:39:45;9.40;;;2.25;;
47309;SDS011;33046;52.270;6.832;2023-03-15T09:41:53;6.53;;;0.73;;
47309;SDS011;33046;52.270;6.832;2023-03-15T09:44:05;7.07;;;0.80;;
47309;SDS011;33046;52.270;6.832;2023-03-15T09:46:24;3.53;;;0.90;;
47309;SDS011;33046;52.270;6.832;2023-03-15T09:48:34;5.00;;;1.05;;
47309;SDS011;33046;52.270;6.832;2023-03-15T09:50:46;3.53;;;0.55;;
47309;SDS011;33046;52.270;6.832;2023-03-15T09:52:57;2.63;;;0.38;;
47309;SDS011;33046;52.270;6.832;2023-03-15T09:55:10;4.68;;;1.30;;
47309;SDS011;33046;52.270;6.832;2023-03-15T09:57:22;4.35;;;1.17;;
47309;SDS011;33046;52.270;6.832;2023-03-15T09:59:34;4.03;;;0.45;;
47309;SDS011;33046;52.270;6.832;2023-03-15T10:01:46;3.20;;;0.40;;
47309;SDS011;33046;52.270;6.832;2023-03-15T10:03:53;7.38;;;1.30;;
47309;SDS011;33046;52.270;6.832;2023-03-15T10:06:01;6.18;;;1.70;;
47309;SDS011;33046;52.270;6.832;2023-03-15T10:08:16;5.35;;;0.50;;
47309;SDS011;33046;52.270;6.832;2023-03-15T10:10:26;4.80;;;0.65;;
47309;SDS011;33046;52.270;6.832;2023-03-15T10:12:38;7.20;;;1.35;;
47309;SDS011;33046;52.270;6.832;2023-03-15T10:17:29;2.95;;;0.73;;
47309;SDS011;33046;52.270;6.832;2023-03-15T10:19:44;6.07;;;0.70;;
47309;SDS011;33046;52.270;6.832;2023-03-15T10:21:57;4.35;;;0.47;;
47309;SDS011;33046;52.270;6.832;2023-03-15T10:24:18;4.77;;;0.80;;
47309;SDS011;33046;52.270;6.832;2023-03-15T10:26:27;7.53;;;0.65;;
47309;SDS011;33046;52.270;6.832;2023-03-15T10:28:36;5.82;;;1.60;;
47309;SDS011;33046;52.270;6.832;2023-03-15T10:30:45;10.65;;;1.00;;
47309;SDS011;33046;52.270;6.832;2023-03-15T10:32:56;5.60;;;0.57;;
47309;SDS011;33046;52.270;6.832;2023-03-15T10:35:10;5.75;;;0.70;;
47309;SDS011;33046;52.270;6.832;2023-03-15T10:37:19;3.35;;;1.30;;
47309;SDS011;33046;52.270;6.832;2023-03-15T10:39:26;3.70;;;1.45;;
47309;SDS011;33046;52.270;6.832;2023-03-15T10:41:36;3.00;;;0.95;;
47309;SDS011;33046;52.270;6.832;2023-03-15T10:43:44;3.78;;;0.80;;
47309;SDS011;33046;52.270;6.832;2023-03-15T10:46:04;2.53;;;0.60;;
47309;SDS011;33046;52.270;6.832;2023-03-15T10:48:13;2.45;;;0.50;;
47309;SDS011;33046;52.270;6.832;2023-03-15T10:50:24;4.82;;;0.98;;
47309;SDS011;33046;52.270;6.832;2023-03-15T10:52:32;7.38;;;0.75;;
47309;SDS011;33046;52.270;6.832;2023-03-15T10:54:42;3.78;;;0.60;;
47309;SDS011;33046;52.270;6.832;2023-03-15T10:56:50;3.72;;;0.50;;
47309;SDS011;33046;52.270;6.832;2023-03-15T10:59:04;3.72;;;0.82;;
47309;SDS011;33046;52.270;6.832;2023-03-15T11:01:22;3.28;;;0.70;;
47309;SDS011;33046;52.270;6.832;2023-03-15T11:03:32;4.75;;;0.63;;
47309;SDS011;33046;52.270;6.832;2023-03-15T11:05:41;4.82;;;0.68;;
47309;SDS011;33046;52.270;6.832;2023-03-15T11:07:53;6.75;;;1.10;;
47309;SDS011;33046;52.270;6.832;2023-03-15T11:10:02;3.08;;;0.50;;
47309;SDS011;33046;52.270;6.832;2023-03-15T11:12:14;4.25;;;1.27;;
47309;SDS011;33046;52.270;6.832;2023-03-15T11:14:31;2.03;;;0.63;;
47309;SDS011;33046;52.270;6.832;2023-03-15T11:16:40;3.15;;;0.85;;
47309;SDS011;33046;52.270;6.832;2023-03-15T11:18:54;5.60;;;1.15;;
47309;SDS011;33046;52.270;6.832;2023-03-15T11:21:04;8.18;;;0.95;;
47309;SDS011;33046;52.270;6.832;2023-03-15T11:23:15;6.53;;;0.60;;
47309;SDS011;33046;52.270;6.832;2023-03-15T11:25:27;3.67;;;0.77;;
47309;SDS011;33046;52.270;6.832;2023-03-15T11:27:35;4.75;;;0.50;;
47309;SDS011;33046;52.270;6.832;2023-03-15T11:29:43;4.00;;;0.85;;
47309;SDS011;33046;52.270;6.832;2023-03-15T11:31:53;2.90;;;0.50;;
47309;SDS011;33046;52.270;6.832;2023-03-15T11:34:03;1.90;;;0.40;;
47309;SDS011;33046;52.270;6.832;2023-03-15T11:36:14;4.35;;;0.93;;
47309;SDS011;33046;52.270;6.832;2023-03-15T11:38:25;5.07;;;0.80;;
47309;SDS011;33046;52.270;6.832;2023-03-15T11:40:37;3.85;;;0.50;;
47309;SDS011;33046;52.270;6.832;2023-03-15T11:42:48;2.03;;;0.75;;
47309;SDS011;33046;52.270;6.832;2023-03-15T11:45:00;5.78;;;0.60;;
47309;SDS011;33046;52.270;6.832;2023-03-15T11:47:11;11.70;;;1.05;;
47309;SDS011;33046;52.270;6.832;2023-03-15T11:49:26;6.72;;;0.73;;
47309;SDS011;33046;52.270;6.832;2023-03-15T11:51:38;5.03;;;0.93;;
47309;SDS011;33046;52.270;6.832;2023-03-15T11:53:46;2.85;;;0.70;;
47309;SDS011;33046;52.270;6.832;2023-03-15T11:56:01;4.70;;;0.63;;
47309;SDS011;33046;52.270;6.832;2023-03-15T11:58:29;6.28;;;0.45;;
47309;SDS011;33046;52.270;6.832;2023-03-15T12:02:55;7.78;;;1.38;;
47309;SDS011;33046;52.270;6.832;2023-03-15T12:05:05;4.43;;;0.50;;
47309;SDS011;33046;52.270;6.832;2023-03-15T12:07:30;3.15;;;0.60;;
47309;SDS011;33046;52.270;6.832;2023-03-15T12:09:46;3.05;;;0.30;;
47309;SDS011;33046;52.270;6.832;2023-03-15T12:11:55;2.50;;;0.40;;
47309;SDS011;33046;52.270;6.832;2023-03-15T12:14:04;4.45;;;0.47;;
47309;SDS011;33046;52.270;6.832;2023-03-15T12:16:25;2.53;;;0.52;;
47309;SDS011;33046;52.270;6.832;2023-03-15T12:18:38;5.30;;;1.27;;
47309;SDS011;33046;52.270;6.832;2023-03-15T12:20:50;3.80;;;0.43;;
47309;SDS011;33046;52.270;6.832;2023-03-15T12:23:12;3.63;;;0.35;;
47309;SDS011;33046;52.270;6.832;2023-03-15T12:25:34;2.42;;;0.50;;
47309;SDS011;33046;52.270;6.832;2023-03-15T12:27:54;1.77;;;0.40;;
47309;SDS011;33046;52.270;6.832;2023-03-15T12:30:03;3.17;;;0.60;;
47309;SDS011;33046;52.270;6.832;2023-03-15T12:32:12;3.63;;;0.75;;
47309;SDS011;33046;52.270;6.832;2023-03-15T12:34:22;2.78;;;0.50;;
47309;SDS011;33046;52.270;6.832;2023-03-15T12:36:36;3.40;;;0.40;;
47309;SDS011;33046;52.270;6.832;2023-03-15T12:38:52;1.98;;;0.50;;
47309;SDS011;33046;52.270;6.832;2023-03-15T12:41:05;3.08;;;0.52;;
47309;SDS011;33046;52.270;6.832;2023-03-15T12:43:13;6.07;;;0.95;;
47309;SDS011;33046;52.270;6.832;2023-03-15T12:45:34;3.50;;;0.80;;
47309;SDS011;33046;52.270;6.832;2023-03-15T12:47:43;4.10;;;0.60;;
47309;SDS011;33046;52.270;6.832;2023-03-15T12:49:50;3.97;;;0.82;;
47309;SDS011;33046;52.270;6.832;2023-03-15T12:51:59;3.58;;;0.95;;
47309;SDS011;33046;52.270;6.832;2023-03-15T12:54:07;1.55;;;0.40;;
47309;SDS011;33046;52.270;6.832;2023-03-15T12:58:55;5.85;;;0.57;;
47309;SDS011;33046;52.270;6.832;2023-03-15T13:01:06;0.98;;;0.50;;
47309;SDS011;33046;52.270;6.832;2023-03-15T13:03:14;5.40;;;0.60;;
47309;SDS011;33046;52.270;6.832;2023-03-15T13:05:24;4.55;;;0.40;;
47309;SDS011;33046;52.270;6.832;2023-03-15T13:07:40;2.55;;;0.40;;
47309;SDS011;33046;52.270;6.832;2023-03-15T13:10:00;1.90;;;0.40;;
47309;SDS011;33046;52.270;6.832;2023-03-15T13:12:22;2.85;;;0.40;;
47309;SDS011;33046;52.270;6.832;2023-03-15T13:14:35;1.67;;;0.40;;
47309;SDS011;33046;52.270;6.832;2023-03-15T13:16:47;9.33;;;0.30;;
47309;SDS011;33046;52.270;6.832;2023-03-15T13:19:03;3.47;;;0.50;;
47309;SDS011;33046;52.270;6.832;2023-03-15T13:21:22;1.90;;;0.52;;
47309;SDS011;33046;52.270;6.832;2023-03-15T13:23:33;1.73;;;0.40;;